createdAt,value
2018-07-13T00:00:17.553Z,101522.44
2018-07-13T00:02:46.829Z,101531.30
2018-07-13T00:05:16.178Z,101527.81
2018-07-13T00:07:45.454Z,101534.16
2018-07-13T00:10:14.739Z,101531.53
2018-07-13T00:12:43.972Z,101532.20
2018-07-13T00:15:13.331Z,101526.78
2018-07-13T00:17:42.593Z,101530.11
2018-07-13T00:20:11.855Z,101526.47
2018-07-13T00:22:41.223Z,101530.23
2018-07-13T00:25:10.487Z,101539.80
2018-07-13T00:27:39.777Z,101534.53
2018-07-13T00:30:09.103Z,101541.28
2018-07-13T00:32:38.402Z,101539.97
2018-07-13T00:35:07.876Z,101540.83
2018-07-13T00:37:37.207Z,101546.36
2018-07-13T00:40:06.584Z,101543.36
2018-07-13T00:42:35.924Z,101543.25
2018-07-13T00:45:05.283Z,101543.80
2018-07-13T00:47:34.555Z,101545.93
2018-07-13T00:50:03.871Z,101542.30
2018-07-13T00:52:33.154Z,101540.23
2018-07-13T00:55:02.420Z,101545.93
2018-07-13T00:57:31.733Z,101548.56
2018-07-13T01:00:00.996Z,101544.66
2018-07-13T01:02:30.264Z,101546.73
2018-07-13T01:04:59.620Z,101552.91
2018-07-13T01:07:28.856Z,101557.14
2018-07-13T01:09:58.146Z,101553.73
2018-07-13T01:12:27.488Z,101551.31
2018-07-13T01:14:56.783Z,101552.05
2018-07-13T01:17:26.177Z,101554.68
2018-07-13T01:19:55.491Z,101551.52
2018-07-13T01:22:24.762Z,101549.63
2018-07-13T01:24:54.142Z,101550.36
2018-07-13T01:27:26.927Z,101554.52
2018-07-13T01:29:56.759Z,101555.70
2018-07-13T01:32:26.118Z,101549.70
2018-07-13T01:34:55.473Z,101553.20
2018-07-13T01:37:24.736Z,101553.27
2018-07-13T01:39:54.031Z,101552.95
2018-07-13T01:42:23.317Z,101559.27
2018-07-13T01:44:52.612Z,101562.47
2018-07-13T01:47:21.855Z,101556.89
2018-07-13T01:49:51.092Z,101564.58
2018-07-13T01:52:20.357Z,101557.13
2018-07-13T01:54:49.642Z,101565.42
2018-07-13T01:57:18.895Z,101562.01
2018-07-13T01:59:48.427Z,101560.89
2018-07-13T02:02:17.949Z,101561.95
2018-07-13T02:04:47.339Z,101565.48
2018-07-13T02:07:16.629Z,101566.16
2018-07-13T02:09:45.869Z,101568.50
2018-07-13T02:12:16.196Z,101566.89
2018-07-13T02:14:45.456Z,101564.41
2018-07-13T02:17:14.710Z,101562.23
2018-07-13T02:19:44.075Z,101558.47
2018-07-13T02:22:13.530Z,101558.48
2018-07-13T02:24:42.942Z,101563.73
2018-07-13T02:27:12.230Z,101559.63
2018-07-13T02:29:41.611Z,101565.37
2018-07-13T02:32:10.953Z,101565.56
2018-07-13T02:34:40.255Z,101561.59
2018-07-13T02:37:09.635Z,101565.66
2018-07-13T02:39:38.971Z,101562.57
2018-07-13T02:42:08.309Z,101566.30
2018-07-13T02:44:37.624Z,101568.25
2018-07-13T02:47:07.046Z,101577.08
2018-07-13T02:49:36.331Z,101580.27
2018-07-13T02:52:05.732Z,101576.97
2018-07-13T02:54:35.068Z,101579.30
2018-07-13T02:57:04.395Z,101578.02
2018-07-13T02:59:33.709Z,101579.00
2018-07-13T03:02:02.981Z,101579.19
2018-07-13T03:04:32.317Z,101582.78
2018-07-13T03:07:01.563Z,101579.33
2018-07-13T03:09:30.852Z,101586.80
2018-07-13T03:11:59.915Z,101578.31
2018-07-13T03:14:29.185Z,101583.27
2018-07-13T03:16:58.431Z,101584.58
2018-07-13T03:19:27.725Z,101587.21
2018-07-13T03:21:56.984Z,101597.05
2018-07-13T03:24:26.230Z,101592.17
2018-07-13T03:26:55.495Z,101598.09
2018-07-13T03:29:24.822Z,101599.17
2018-07-13T03:31:54.276Z,101603.22
2018-07-13T03:34:23.404Z,101605.05
2018-07-13T03:36:53.054Z,101605.36
2018-07-13T03:39:22.320Z,101606.67
2018-07-13T03:41:51.563Z,101609.06
2018-07-13T03:44:20.833Z,101606.44
2018-07-13T03:46:50.181Z,101603.36
2018-07-13T03:49:19.486Z,101609.61
2018-07-13T03:51:48.807Z,101617.22
2018-07-13T03:54:18.161Z,101617.22
2018-07-13T03:56:47.328Z,101611.10
2018-07-13T03:59:16.588Z,101618.88
2018-07-13T04:01:45.865Z,101611.97
2018-07-13T04:04:16.194Z,101607.92
2018-07-13T04:06:45.419Z,101612.13
2018-07-13T04:09:14.710Z,101609.16
2018-07-13T04:11:43.983Z,101613.37
2018-07-13T04:14:13.250Z,101610.36
2018-07-13T04:16:42.558Z,101610.11
2018-07-13T04:19:11.675Z,101611.88
2018-07-13T04:21:40.992Z,101614.66
2018-07-13T04:24:10.360Z,101607.45
2018-07-13T04:26:40.529Z,101610.69
2018-07-13T04:29:09.921Z,101611.89
2018-07-13T04:31:39.354Z,101608.78
2018-07-13T04:34:08.800Z,101611.25
2018-07-13T04:36:38.131Z,101612.13
2018-07-13T04:39:10.813Z,101607.85
2018-07-13T04:41:40.214Z,101609.75
2018-07-13T04:44:09.736Z,101609.75
2018-07-13T04:46:39.149Z,101611.34
2018-07-13T04:49:08.485Z,101610.89
2018-07-13T04:51:37.839Z,101617.61
2018-07-13T04:54:07.287Z,101617.45
2018-07-13T04:56:36.668Z,101614.48
2018-07-13T04:59:06.137Z,101613.17
2018-07-13T05:01:35.460Z,101612.23
2018-07-13T05:04:04.943Z,101614.45
2018-07-13T05:06:34.579Z,101616.03
2018-07-13T05:09:04.172Z,101609.72
2018-07-13T05:11:33.390Z,101603.98
2018-07-13T05:14:02.738Z,101608.06
2018-07-13T05:16:32.000Z,101610.49
2018-07-13T05:19:01.305Z,101612.63
2018-07-13T05:21:30.575Z,101609.50
2018-07-13T05:23:59.851Z,101619.14
2018-07-13T05:26:29.417Z,101614.96
2018-07-13T05:28:58.835Z,101616.06
2018-07-13T05:31:28.133Z,101619.16
2018-07-13T05:33:57.425Z,101621.16
2018-07-13T05:36:26.697Z,101623.11
2018-07-13T05:38:55.967Z,101615.47
2018-07-13T05:41:25.287Z,101620.26
2018-07-13T05:43:54.651Z,101618.38
2018-07-13T05:46:24.032Z,101617.84
2018-07-13T05:48:53.320Z,101624.50
2018-07-13T05:51:22.629Z,101626.87
2018-07-13T05:53:51.918Z,101625.77
2018-07-13T05:56:21.286Z,101629.80
2018-07-13T05:58:50.618Z,101634.01
2018-07-13T06:01:20.057Z,101636.22
2018-07-13T06:03:49.738Z,101629.28
2018-07-13T06:06:19.037Z,101634.11
2018-07-13T06:08:48.162Z,101632.96
2018-07-13T06:11:17.569Z,101634.16
2018-07-13T06:13:46.811Z,101629.22
2018-07-13T06:16:16.125Z,101629.45
2018-07-13T06:18:45.420Z,101628.06
2018-07-13T06:21:14.718Z,101624.13
2018-07-13T06:23:44.001Z,101626.39
2018-07-13T06:26:13.289Z,101625.51
2018-07-13T06:28:42.644Z,101628.21
2018-07-13T06:31:11.963Z,101630.69
2018-07-13T06:33:41.235Z,101630.65
2018-07-13T06:36:10.727Z,101630.33
2018-07-13T06:38:40.055Z,101632.69
2018-07-13T06:41:09.562Z,101620.67
2018-07-13T06:43:38.932Z,101630.78
2018-07-13T06:46:08.831Z,101626.30
2018-07-13T06:48:38.330Z,101623.94
2018-07-13T06:51:07.621Z,101627.06
2018-07-13T06:53:37.036Z,101625.92
2018-07-13T06:56:06.334Z,101625.92
2018-07-13T06:58:52.307Z,101620.27
2018-07-13T07:01:21.649Z,101626.98
2018-07-13T07:05:03.543Z,101631.62
2018-07-13T07:07:32.819Z,101637.84
2018-07-13T07:10:02.059Z,101639.45
2018-07-13T07:12:56.145Z,101638.23
2018-07-13T07:15:25.816Z,101642.23
2018-07-13T07:17:55.568Z,101635.57
2018-07-13T07:20:24.923Z,101635.79
2018-07-13T07:22:54.217Z,101631.50
2018-07-13T07:25:23.482Z,101629.58
2018-07-13T07:27:52.811Z,101626.80
2018-07-13T07:30:22.083Z,101629.75
2018-07-13T07:32:51.353Z,101623.45
2018-07-13T07:35:20.745Z,101623.51
2018-07-13T07:37:50.012Z,101621.67
2018-07-13T07:40:19.309Z,101620.00
2018-07-13T07:42:48.560Z,101621.83
2018-07-13T07:45:17.883Z,101626.50
2018-07-13T07:47:47.108Z,101619.88
2018-07-13T07:50:16.471Z,101621.27
2018-07-13T07:52:45.739Z,101621.28
2018-07-13T07:55:15.025Z,101616.45
2018-07-13T07:57:44.863Z,101621.02
2018-07-13T08:00:14.155Z,101621.68
2018-07-13T08:02:43.430Z,101624.22
2018-07-13T08:05:12.747Z,101624.19
2018-07-13T08:07:42.198Z,101622.44
2018-07-13T08:10:11.421Z,101626.47
2018-07-13T08:12:40.744Z,101626.37
2018-07-13T08:15:10.137Z,101622.03
2018-07-13T08:17:39.523Z,101625.34
2018-07-13T08:20:08.996Z,101623.73
2018-07-13T08:22:45.467Z,101624.36
2018-07-13T08:25:15.304Z,101618.83
2018-07-13T08:27:46.277Z,101624.02
2018-07-13T08:30:25.848Z,101623.30
2018-07-13T08:32:55.296Z,101627.52
2018-07-13T08:35:24.613Z,101626.99
2018-07-13T08:37:53.990Z,101623.61
2018-07-13T08:40:23.243Z,101628.33
2018-07-13T08:42:52.705Z,101628.73
2018-07-13T08:45:21.998Z,101626.58
2018-07-13T08:47:51.347Z,101627.33
2018-07-13T08:50:20.680Z,101631.33
2018-07-13T08:52:50.000Z,101624.78
2018-07-13T08:55:19.304Z,101620.88
2018-07-13T08:57:49.363Z,101616.66
2018-07-13T09:00:18.661Z,101617.63
2018-07-13T09:02:47.936Z,101611.12
2018-07-13T09:05:17.255Z,101616.45
2018-07-13T09:07:46.545Z,101617.94
2018-07-13T09:10:15.897Z,101623.16
2018-07-13T09:12:45.185Z,101619.11
2018-07-13T09:15:14.983Z,101617.08
2018-07-13T09:17:44.291Z,101615.68
2018-07-13T09:20:14.211Z,101618.94
2018-07-13T09:22:43.544Z,101615.61
2018-07-13T09:25:12.952Z,101617.74
2018-07-13T09:27:42.249Z,101615.94
2018-07-13T09:30:12.235Z,101625.20
2018-07-13T09:32:41.706Z,101619.91
2018-07-13T09:35:11.203Z,101615.51
2018-07-13T09:37:41.704Z,101608.17
2018-07-13T09:40:11.095Z,101617.69
2018-07-13T09:42:40.446Z,101611.62
2018-07-13T09:45:09.932Z,101601.91
2018-07-13T09:47:39.346Z,101611.35
2018-07-13T09:50:08.668Z,101610.11
2018-07-13T09:52:38.174Z,101607.30
2018-07-13T09:55:07.825Z,101609.77
2018-07-13T09:57:37.387Z,101609.14
2018-07-13T10:00:07.105Z,101609.41
2018-07-13T10:02:36.437Z,101612.47
2018-07-13T10:05:05.834Z,101611.43
2018-07-13T10:07:35.194Z,101604.05
2018-07-13T10:10:04.592Z,101603.80
2018-07-13T10:12:34.023Z,101603.20
2018-07-13T10:15:03.308Z,101608.55
2018-07-13T10:17:32.621Z,101614.78
2018-07-13T10:20:01.885Z,101603.84
2018-07-13T10:22:31.903Z,101603.28
2018-07-13T10:25:03.408Z,101607.88
2018-07-13T10:27:35.858Z,101605.16
2018-07-13T10:30:06.914Z,101605.73
2018-07-13T10:32:36.434Z,101607.50
2018-07-13T10:35:08.235Z,101599.77
2018-07-13T10:37:37.946Z,101601.34
2018-07-13T10:40:07.441Z,101598.42
2018-07-13T10:42:36.903Z,101601.30
2018-07-13T10:45:06.350Z,101604.20
2018-07-13T10:47:35.759Z,101594.52
2018-07-13T10:50:05.178Z,101603.17
2018-07-13T10:52:34.785Z,101604.48
2018-07-13T10:55:04.050Z,101593.52
2018-07-13T10:57:33.356Z,101592.00
2018-07-13T11:00:02.685Z,101596.41
2018-07-13T11:02:31.985Z,101590.50
2018-07-13T11:05:01.280Z,101587.78
2018-07-13T11:07:30.601Z,101585.98
2018-07-13T11:09:59.931Z,101587.34
2018-07-13T11:12:29.203Z,101585.26
2018-07-13T11:14:58.487Z,101585.43
2018-07-13T11:17:27.848Z,101582.45
2018-07-13T11:19:57.161Z,101585.62
2018-07-13T11:22:26.504Z,101585.83
2018-07-13T11:24:55.752Z,101590.53
2018-07-13T11:27:25.100Z,101584.26
2018-07-13T11:29:54.509Z,101576.50
2018-07-13T11:32:23.841Z,101571.11
2018-07-13T11:34:53.180Z,101573.83
2018-07-13T11:37:22.687Z,101575.00
2018-07-13T11:39:51.824Z,101570.59
2018-07-13T11:42:21.106Z,101561.66
2018-07-13T11:44:50.439Z,101569.08
2018-07-13T11:47:19.973Z,101562.70
2018-07-13T11:49:49.342Z,101555.60
2018-07-13T11:52:18.780Z,101558.23
2018-07-13T11:54:48.094Z,101561.65
2018-07-13T11:57:17.344Z,101559.63
2018-07-13T11:59:46.691Z,101564.03
2018-07-13T12:02:15.956Z,101554.40
2018-07-13T12:04:45.205Z,101544.48
2018-07-13T12:07:14.577Z,101552.41
2018-07-13T12:09:43.998Z,101542.81
2018-07-13T12:12:13.244Z,101542.77
2018-07-13T12:14:42.548Z,101537.56
2018-07-13T12:17:11.938Z,101541.10
2018-07-13T12:19:41.229Z,101531.66
2018-07-13T12:22:10.539Z,101530.66
2018-07-13T12:24:39.906Z,101521.71
2018-07-13T12:27:09.317Z,101524.58
2018-07-13T12:29:38.771Z,101522.22
2018-07-13T12:32:08.166Z,101528.31
2018-07-13T12:34:37.513Z,101525.10
2018-07-13T12:37:06.833Z,101522.50
2018-07-13T12:39:36.234Z,101519.33
2018-07-13T12:42:05.531Z,101515.47
2018-07-13T12:44:34.886Z,101512.28
2018-07-13T12:47:04.120Z,101511.95
2018-07-13T12:49:33.381Z,101509.55
2018-07-13T12:52:02.748Z,101518.13
2018-07-13T12:54:32.009Z,101498.64
2018-07-13T12:57:01.285Z,101511.02
2018-07-13T12:59:30.598Z,101509.83
2018-07-13T13:01:59.877Z,101514.74
2018-07-13T13:04:29.091Z,101506.05
2018-07-13T13:06:58.405Z,101510.84
2018-07-13T13:09:27.434Z,101503.34
2018-07-13T13:11:56.697Z,101503.00
2018-07-13T13:14:26.011Z,101499.45
2018-07-13T13:16:55.309Z,101498.76
2018-07-13T13:19:24.613Z,101493.80
2018-07-13T13:21:53.967Z,101498.37
2018-07-13T13:24:23.226Z,101502.34
2018-07-13T13:26:52.486Z,101496.92
2018-07-13T13:29:21.948Z,101493.67
2018-07-13T13:31:51.057Z,101494.77
2018-07-13T13:34:20.304Z,101497.45
2018-07-13T13:36:49.539Z,101491.37
2018-07-13T13:39:18.833Z,101489.14
2018-07-13T13:41:48.217Z,101488.86
2018-07-13T13:44:17.527Z,101485.97
2018-07-13T13:46:46.942Z,101482.77
2018-07-13T13:49:16.341Z,101487.99
2018-07-13T13:51:45.641Z,101492.05
2018-07-13T13:54:15.177Z,101482.25
2018-07-13T13:56:44.427Z,101484.64
2018-07-13T13:59:13.733Z,101478.77
2018-07-13T14:01:43.006Z,101476.23
2018-07-13T14:04:12.458Z,101476.73
2018-07-13T14:06:41.788Z,101469.30
2018-07-13T14:09:11.195Z,101472.95
2018-07-13T14:11:40.532Z,101467.47
2018-07-13T14:14:09.919Z,101470.50
2018-07-13T14:16:39.236Z,101465.20
2018-07-13T14:19:08.653Z,101463.39
2018-07-13T14:21:37.848Z,101468.94
2018-07-13T14:24:14.030Z,101463.94
2018-07-13T14:26:43.333Z,101464.73
2018-07-13T14:29:12.612Z,101466.40
2018-07-13T14:31:41.930Z,101459.55
2018-07-13T14:34:11.491Z,101456.69
2018-07-13T14:36:40.757Z,101456.02
2018-07-13T14:39:11.056Z,101458.30
2018-07-13T14:41:40.405Z,101451.94
2018-07-13T14:44:09.987Z,101449.95
2018-07-13T14:46:39.408Z,101450.92
2018-07-13T14:49:08.971Z,101449.95
2018-07-13T14:51:38.277Z,101445.20
2018-07-13T14:54:07.742Z,101441.69
2018-07-13T14:56:37.054Z,101452.61
2018-07-13T14:59:06.366Z,101447.59
2018-07-13T15:01:35.721Z,101442.83
2018-07-13T15:04:05.050Z,101440.55
2018-07-13T15:06:34.460Z,101437.99
2018-07-13T15:09:03.955Z,101432.73
2018-07-13T15:11:33.264Z,101430.30
2018-07-13T15:14:02.548Z,101430.16
2018-07-13T15:16:31.859Z,101437.08
2018-07-13T15:19:01.146Z,101436.50
2018-07-13T15:21:30.442Z,101435.83
2018-07-13T15:23:59.837Z,101439.53
2018-07-13T15:26:29.273Z,101438.75
2018-07-13T15:28:58.583Z,101433.84
2018-07-13T15:31:27.928Z,101431.49
2018-07-13T15:33:57.295Z,101429.38
2018-07-13T15:36:26.722Z,101431.02
2018-07-13T15:38:56.025Z,101427.17
2018-07-13T15:41:25.279Z,101428.97
2018-07-13T15:43:54.628Z,101433.33
2018-07-13T15:46:23.917Z,101427.97
2018-07-13T15:48:53.181Z,101430.69
2018-07-13T15:51:22.452Z,101435.25
2018-07-13T15:53:51.820Z,101435.59
2018-07-13T15:56:20.835Z,101436.20
2018-07-13T15:58:50.127Z,101439.88
2018-07-13T16:01:19.461Z,101431.84
2018-07-13T16:03:48.874Z,101432.05
2018-07-13T16:06:18.200Z,101430.69
2018-07-13T16:08:47.511Z,101425.75
2018-07-13T16:11:16.823Z,101428.95
2018-07-13T16:13:46.243Z,101424.39
2018-07-13T16:16:15.779Z,101419.13
2018-07-13T16:18:45.008Z,101422.98
2018-07-13T16:21:14.259Z,101425.65
2018-07-13T16:23:43.549Z,101422.50
2018-07-13T16:26:12.934Z,101418.12
2018-07-13T16:28:43.217Z,101417.75
2018-07-13T16:31:12.547Z,101418.67
2018-07-13T16:33:42.421Z,101411.55
2018-07-13T16:36:11.954Z,101414.37
2018-07-13T16:38:41.614Z,101410.06
2018-07-13T16:41:10.977Z,101412.06
2018-07-13T16:43:40.586Z,101408.36
2018-07-13T16:46:10.086Z,101408.88
2018-07-13T16:48:39.460Z,101409.94
2018-07-13T16:51:08.911Z,101405.66
2018-07-13T16:53:38.359Z,101401.26
2018-07-13T16:56:08.225Z,101399.80
2018-07-13T16:58:37.775Z,101400.14
2018-07-13T17:01:07.274Z,101389.50
2018-07-13T17:03:36.556Z,101395.77
2018-07-13T17:06:06.075Z,101397.77
2018-07-13T17:08:35.319Z,101391.09
2018-07-13T17:11:04.606Z,101388.28
2018-07-13T17:13:33.921Z,101384.42
2018-07-13T17:16:03.196Z,101382.42
2018-07-13T17:18:32.511Z,101381.49
2018-07-13T17:21:01.790Z,101381.11
2018-07-13T17:23:31.061Z,101387.17
2018-07-13T17:26:00.982Z,101388.41
2018-07-13T17:28:30.459Z,101383.92
2018-07-13T17:30:59.693Z,101381.91
2018-07-13T17:33:29.074Z,101383.34
2018-07-13T17:35:58.467Z,101384.72
2018-07-13T17:38:29.137Z,101382.93
2018-07-13T17:40:59.186Z,101387.72
2018-07-13T17:43:28.597Z,101383.48
2018-07-13T17:45:57.953Z,101385.03
2018-07-13T17:48:27.207Z,101382.06
2018-07-13T17:50:56.557Z,101386.59
2018-07-13T17:53:25.931Z,101376.64
2018-07-13T17:55:55.305Z,101381.14
2018-07-13T17:58:24.595Z,101378.39
2018-07-13T18:00:54.037Z,101383.28
2018-07-13T18:03:23.351Z,101382.44
2018-07-13T18:05:52.587Z,101377.34
2018-07-13T18:08:21.875Z,101377.97
2018-07-13T18:10:51.178Z,101377.38
2018-07-13T18:13:20.640Z,101381.52
2018-07-13T18:15:49.997Z,101384.81
2018-07-13T18:18:25.211Z,101380.57
2018-07-13T18:20:57.286Z,101381.56
2018-07-13T18:23:26.878Z,101383.61
2018-07-13T18:25:56.291Z,101381.94
2018-07-13T18:28:25.882Z,101376.61
2018-07-13T18:30:55.296Z,101371.75
2018-07-13T18:33:24.671Z,101375.02
2018-07-13T18:35:54.104Z,101374.69
2018-07-13T18:38:23.504Z,101372.63
2018-07-13T18:40:52.816Z,101368.28
2018-07-13T18:43:22.121Z,101368.77
2018-07-13T18:45:51.537Z,101380.28
2018-07-13T18:48:20.602Z,101380.50
2018-07-13T18:50:49.952Z,101376.14
2018-07-13T18:53:19.291Z,101386.16
2018-07-13T18:55:48.604Z,101383.13
2018-07-13T19:01:15.952Z,101376.61
2018-07-13T19:03:45.540Z,101380.66
2018-07-13T19:06:15.155Z,101381.12
2018-07-13T19:08:44.630Z,101383.77
2018-07-13T19:11:14.023Z,101390.68
2018-07-13T19:13:43.616Z,101382.89
2018-07-13T19:16:13.245Z,101385.74
2018-07-13T19:18:42.746Z,101392.66
2018-07-13T19:21:12.084Z,101393.20
2018-07-13T19:23:41.611Z,101393.34
2018-07-13T19:26:11.193Z,101400.66
2018-07-13T19:28:41.456Z,101399.42
2018-07-13T19:31:12.236Z,101402.45
2018-07-13T19:33:41.723Z,101407.27
2018-07-13T19:36:11.839Z,101410.63
2018-07-13T19:38:45.189Z,101413.21
2018-07-13T19:41:15.116Z,101415.45
2018-07-13T19:43:44.366Z,101414.92
2018-07-13T19:46:13.999Z,101423.31
2018-07-13T19:48:43.379Z,101427.75
2018-07-13T19:51:12.898Z,101428.36
2018-07-13T19:53:42.217Z,101429.08
2018-07-13T19:56:11.825Z,101435.61
2018-07-13T19:58:41.124Z,101431.02
2018-07-13T20:01:10.549Z,101435.63
2018-07-13T20:03:39.788Z,101436.56
2018-07-13T20:06:09.219Z,101442.83
2018-07-13T20:08:38.571Z,101439.75
2018-07-13T20:11:08.413Z,101441.65
2018-07-13T20:13:38.137Z,101440.39
2018-07-13T20:16:07.478Z,101439.00
2018-07-13T20:18:36.794Z,101437.22
2018-07-13T20:21:06.229Z,101439.09
2018-07-13T20:23:35.531Z,101442.92
2018-07-13T20:26:04.998Z,101443.16
2018-07-13T20:28:34.336Z,101448.53
2018-07-13T20:31:03.740Z,101448.74
2018-07-13T20:33:33.106Z,101446.65
2018-07-13T20:36:02.522Z,101451.36
2018-07-13T20:38:31.957Z,101448.80
2018-07-13T20:41:01.648Z,101447.72
2018-07-13T20:43:31.069Z,101454.67
2018-07-13T20:46:00.479Z,101451.80
2018-07-13T20:48:29.806Z,101456.48
2018-07-13T20:50:59.206Z,101461.13
2018-07-13T20:53:28.626Z,101460.81
2018-07-13T20:55:58.042Z,101461.63
2018-07-13T20:58:27.310Z,101470.01
2018-07-13T21:00:56.676Z,101467.20
2018-07-13T21:03:25.950Z,101467.11
2018-07-13T21:05:55.206Z,101467.25
2018-07-13T21:08:24.470Z,101465.92
2018-07-13T21:10:53.804Z,101467.58
2018-07-13T21:13:23.210Z,101468.77
2018-07-13T21:15:52.559Z,101473.79
2018-07-13T21:18:21.843Z,101476.44
2018-07-13T21:20:51.240Z,101475.81
2018-07-13T21:23:20.607Z,101473.87
2018-07-13T21:25:49.912Z,101478.33
2018-07-13T21:28:19.544Z,101483.02
2018-07-13T21:30:48.960Z,101484.44
2018-07-13T21:33:18.068Z,101486.61
2018-07-13T21:35:47.407Z,101493.00
2018-07-13T21:38:16.716Z,101489.10
2018-07-13T21:40:46.115Z,101493.32
2018-07-13T21:43:15.410Z,101497.40
2018-07-13T21:45:44.746Z,101489.92
2018-07-13T21:48:14.036Z,101486.25
2018-07-13T21:50:43.369Z,101482.44
2018-07-13T21:53:12.678Z,101482.75
2018-07-13T21:55:42.164Z,101483.03
2018-07-13T21:58:11.483Z,101484.34
2018-07-13T22:00:40.858Z,101485.30
2018-07-13T22:03:10.224Z,101483.20
2018-07-13T22:05:39.597Z,101483.20
2018-07-13T22:08:09.094Z,101487.00
2018-07-13T22:10:38.611Z,101487.19
2018-07-13T22:13:08.457Z,101484.55
2018-07-13T22:15:37.838Z,101489.09
2018-07-13T22:18:07.480Z,101488.34
2018-07-13T22:20:36.826Z,101483.16
2018-07-13T22:23:07.759Z,101485.36
2018-07-13T22:25:37.270Z,101486.00
2018-07-13T22:28:06.799Z,101493.02
2018-07-13T22:30:37.137Z,101489.80
2018-07-13T22:33:07.226Z,101486.58
2018-07-13T22:35:36.973Z,101495.86
2018-07-13T22:38:06.431Z,101498.80
2018-07-13T22:40:35.888Z,101504.09
2018-07-13T22:43:05.292Z,101502.22
2018-07-13T22:45:34.785Z,101502.22
2018-07-13T22:48:04.177Z,101505.73
2018-07-13T22:50:33.678Z,101504.70
2018-07-13T22:53:02.895Z,101508.03
2018-07-13T22:55:32.284Z,101500.07
2018-07-13T22:58:01.869Z,101510.84
2018-07-13T23:00:31.273Z,101508.36
2018-07-13T23:03:00.711Z,101504.31
2018-07-13T23:05:30.146Z,101505.88
2018-07-13T23:07:59.695Z,101506.48
2018-07-13T23:10:28.873Z,101509.90
2018-07-13T23:12:58.239Z,101503.77
2018-07-13T23:15:27.863Z,101508.03
2018-07-13T23:17:57.213Z,101501.20
2018-07-13T23:20:26.788Z,101499.45
2018-07-13T23:22:56.092Z,101499.39
2018-07-13T23:25:26.334Z,101499.72
2018-07-13T23:27:55.632Z,101502.47
2018-07-13T23:30:24.899Z,101494.44
2018-07-13T23:32:54.319Z,101497.19
2018-07-13T23:35:23.621Z,101500.16
2018-07-13T23:37:53.221Z,101503.92
2018-07-13T23:40:22.845Z,101504.28
2018-07-13T23:42:52.149Z,101503.38
2018-07-13T23:45:21.567Z,101504.28
2018-07-13T23:47:50.877Z,101497.49
2018-07-13T23:50:20.246Z,101497.75
2018-07-13T23:52:49.715Z,101497.08
2018-07-13T23:55:18.865Z,101499.62
2018-07-13T23:57:48.194Z,101496.52
